createdAt,value
2023-01-29T00:00:30.686Z,-1.23
2023-01-29T00:05:53.359Z,-1.22
2023-01-29T00:11:04.367Z,-1.25
2023-01-29T00:16:06.971Z,-1.26
2023-01-29T00:21:18.744Z,-1.26
2023-01-29T00:26:21.359Z,-1.26
2023-01-29T00:31:26.057Z,-1.25
2023-01-29T00:36:28.891Z,-1.25
2023-01-29T00:41:51.322Z,-1.22
2023-01-29T00:46:54.723Z,-1.17
2023-01-29T00:52:15.613Z,-1.13
2023-01-29T00:57:18.220Z,-1.12
2023-01-29T01:02:39.790Z,-1.11
2023-01-29T01:07:42.345Z,-1.06
2023-01-29T01:12:44.954Z,-1.01
2023-01-29T01:17:48.829Z,-0.99
2023-01-29T01:22:53.161Z,-0.97
2023-01-29T01:27:58.059Z,-1.01
2023-01-29T01:33:01.598Z,-1.01
2023-01-29T01:38:04.218Z,-0.98
2023-01-29T01:43:09.967Z,-0.94
2023-01-29T01:48:16.985Z,-0.94
2023-01-29T01:53:29.068Z,-0.95
2023-01-29T01:58:40.574Z,-0.95
2023-01-29T02:04:10.565Z,-0.93
2023-01-29T02:09:39.287Z,-0.91
2023-01-29T02:14:44.458Z,-0.90
2023-01-29T02:20:01.221Z,-0.92
2023-01-29T02:25:41.621Z,-0.93
2023-01-29T02:31:12.654Z,-0.92
2023-01-29T02:36:18.822Z,-0.91
2023-01-29T02:41:31.791Z,-0.92
2023-01-29T02:46:46.443Z,-0.95
2023-01-29T02:52:26.957Z,-0.96
2023-01-29T02:57:34.726Z,-0.96
2023-01-29T03:02:45.721Z,-0.97
2023-01-29T03:07:58.534Z,-1.01
2023-01-29T03:13:16.537Z,-1.03
2023-01-29T03:18:25.962Z,-1.02
2023-01-29T03:23:50.651Z,-0.97
2023-01-29T03:29:12.994Z,-0.91
2023-01-29T03:34:34.767Z,-0.90
2023-01-29T03:39:37.600Z,-0.94
2023-01-29T03:45:17.915Z,-0.97
2023-01-29T03:50:46.784Z,-1.00
2023-01-29T03:56:02.276Z,-1.00
2023-01-29T04:01:10.545Z,-1.00
2023-01-29T04:06:24.636Z,-0.99
2023-01-29T04:11:29.381Z,-0.98
2023-01-29T04:16:37.200Z,-0.93
2023-01-29T04:21:41.280Z,-0.90
2023-01-29T04:27:05.764Z,-0.90
2023-01-29T04:32:25.799Z,-0.91
2023-01-29T04:38:06.143Z,-0.94
2023-01-29T04:43:35.505Z,-0.94
2023-01-29T04:48:45.572Z,-0.91
2023-01-29T04:54:20.364Z,-0.91
2023-01-29T04:59:33.003Z,-0.91
2023-01-29T05:04:38.105Z,-0.92
2023-01-29T05:09:45.090Z,-0.92
2023-01-29T05:14:50.799Z,-0.92
2023-01-29T05:19:55.484Z,-0.89
2023-01-29T05:24:58.054Z,-0.87
2023-01-29T05:30:00.770Z,-0.88
2023-01-29T05:35:03.548Z,-0.86
2023-01-29T05:40:08.703Z,-0.85
2023-01-29T05:45:11.605Z,-0.81
2023-01-29T05:50:15.881Z,-0.80
2023-01-29T05:55:18.672Z,-0.79
2023-01-29T06:00:21.969Z,-0.80
2023-01-29T06:05:24.664Z,-0.77
2023-01-29T06:10:28.354Z,-0.74
2023-01-29T06:15:31.263Z,-0.72
2023-01-29T06:20:33.916Z,-0.73
2023-01-29T06:25:36.494Z,-0.73
2023-01-29T06:30:39.128Z,-0.74
2023-01-29T06:35:41.861Z,-0.73
2023-01-29T06:40:44.547Z,-0.72
2023-01-29T06:45:52.714Z,-0.72
2023-01-29T06:50:55.350Z,-0.71
2023-01-29T06:55:58.694Z,-0.66
2023-01-29T07:01:09.946Z,-0.63
2023-01-29T07:06:12.568Z,-0.58
2023-01-29T07:11:15.199Z,-0.55
2023-01-29T07:16:19.155Z,-0.56
2023-01-29T07:21:22.014Z,-0.56
2023-01-29T07:26:24.877Z,-0.54
2023-01-29T07:31:27.577Z,-0.49
2023-01-29T07:36:30.944Z,-0.44
2023-01-29T07:41:33.544Z,-0.40
2023-01-29T07:46:36.579Z,-0.31
2023-01-29T07:51:39.134Z,-0.23
2023-01-29T07:56:41.711Z,-0.14
2023-01-29T08:01:44.372Z,-0.06
2023-01-29T08:06:47.079Z,0.02
2023-01-29T08:11:49.663Z,0.15
2023-01-29T08:16:52.403Z,0.27
2023-01-29T08:21:55.003Z,0.34
2023-01-29T08:26:57.790Z,0.42
2023-01-29T08:32:00.912Z,0.49
2023-01-29T08:37:03.590Z,0.53
2023-01-29T08:42:06.320Z,0.60
2023-01-29T08:47:08.958Z,0.65
2023-01-29T08:52:12.012Z,0.68
2023-01-29T08:57:15.893Z,0.70
2023-01-29T09:02:19.943Z,0.75
2023-01-29T09:07:24.087Z,0.85
2023-01-29T09:12:26.699Z,1.01
2023-01-29T09:17:29.351Z,1.08
2023-01-29T09:22:32.249Z,1.09
2023-01-29T09:27:35.074Z,1.09
2023-01-29T09:32:55.045Z,1.06
2023-01-29T09:37:57.922Z,1.07
2023-01-29T09:43:09.467Z,1.07
2023-01-29T09:48:13.268Z,1.09
2023-01-29T09:53:22.032Z,1.14
2023-01-29T09:58:33.716Z,1.20
2023-01-29T10:03:55.968Z,1.29
2023-01-29T10:09:36.271Z,1.50
2023-01-29T10:15:00.925Z,1.56
2023-01-29T10:20:14.950Z,1.60
2023-01-29T10:25:21.791Z,1.61
2023-01-29T10:30:30.707Z,1.56
2023-01-29T10:35:46.572Z,1.44
2023-01-29T10:41:00.783Z,1.41
2023-01-29T10:46:41.014Z,1.45
2023-01-29T10:52:08.556Z,1.60
2023-01-29T10:57:21.767Z,1.65
2023-01-29T11:02:24.724Z,1.62
2023-01-29T11:07:28.189Z,1.57
2023-01-29T11:12:33.370Z,1.51
2023-01-29T11:17:35.989Z,1.46
2023-01-29T11:22:55.545Z,1.42
2023-01-29T11:28:02.696Z,1.34
2023-01-29T11:33:05.323Z,1.34
2023-01-29T11:38:18.570Z,1.40
2023-01-29T11:43:24.171Z,1.41
2023-01-29T11:48:59.259Z,1.45
2023-01-29T11:54:19.620Z,1.60
2023-01-29T11:59:49.940Z,1.71
2023-01-29T12:04:56.037Z,1.73
2023-01-29T12:10:00.163Z,1.73
2023-01-29T12:15:27.372Z,1.67
2023-01-29T12:20:45.156Z,1.55
2023-01-29T12:26:01.366Z,1.46
2023-01-29T12:31:18.062Z,1.48
2023-01-29T12:36:47.004Z,1.49
2023-01-29T12:42:08.400Z,1.51
2023-01-29T12:47:25.187Z,1.47
2023-01-29T12:52:40.832Z,1.49
2023-01-29T12:58:04.575Z,1.54
2023-01-29T13:03:29.450Z,1.54
2023-01-29T13:08:53.611Z,1.45
2023-01-29T13:14:29.542Z,1.38
2023-01-29T13:19:38.176Z,1.34
2023-01-29T13:24:47.919Z,1.36
2023-01-29T13:29:54.398Z,1.38
2023-01-29T13:35:14.062Z,1.36
2023-01-29T13:40:26.659Z,1.33
2023-01-29T13:45:51.569Z,1.30
2023-01-29T13:51:02.759Z,1.32
2023-01-29T13:56:41.815Z,1.31
2023-01-29T14:01:47.623Z,1.28
2023-01-29T14:06:52.744Z,1.22
2023-01-29T14:11:55.531Z,1.16
2023-01-29T14:17:02.812Z,1.12
2023-01-29T14:22:05.675Z,1.09
2023-01-29T14:27:25.250Z,1.09
2023-01-29T14:32:30.867Z,1.10
2023-01-29T14:37:39.942Z,1.08
2023-01-29T14:43:06.992Z,1.04
2023-01-29T14:48:12.528Z,1.00
2023-01-29T14:53:34.321Z,1.00
2023-01-29T14:58:44.143Z,0.97
2023-01-29T15:03:51.123Z,0.95
2023-01-29T15:08:58.197Z,0.95
2023-01-29T15:14:26.642Z,0.93
2023-01-29T15:19:36.344Z,0.87
2023-01-29T15:24:41.261Z,0.84
2023-01-29T15:29:51.888Z,0.86
2023-01-29T15:34:56.311Z,0.85
2023-01-29T15:40:01.747Z,0.83
2023-01-29T15:45:04.868Z,0.83
2023-01-29T15:50:12.475Z,0.85
2023-01-29T15:55:15.987Z,0.86
2023-01-29T16:00:30.042Z,0.83
2023-01-29T16:05:33.255Z,0.86
2023-01-29T16:10:36.812Z,0.89
2023-01-29T16:15:58.765Z,0.88
2023-01-29T16:21:22.823Z,0.86
2023-01-29T16:26:30.391Z,0.88
2023-01-29T16:31:34.430Z,0.90
2023-01-29T16:36:37.962Z,0.92
2023-01-29T16:41:40.662Z,0.90
2023-01-29T16:46:47.519Z,0.90
2023-01-29T16:51:50.280Z,0.90
2023-01-29T16:56:55.844Z,0.88
2023-01-29T17:01:59.425Z,0.85
2023-01-29T17:07:02.697Z,0.84
2023-01-29T17:12:08.833Z,0.83
2023-01-29T17:17:16.255Z,0.83
2023-01-29T17:22:19.008Z,0.85
2023-01-29T17:27:23.096Z,0.86
2023-01-29T17:32:45.198Z,0.85
2023-01-29T17:37:50.010Z,0.85
2023-01-29T17:42:52.651Z,0.85
2023-01-29T17:47:55.257Z,0.85
2023-01-29T17:52:58.105Z,0.82
2023-01-29T17:58:00.757Z,0.79
2023-01-29T18:03:04.042Z,0.77
2023-01-29T18:08:08.335Z,0.73
2023-01-29T18:13:12.293Z,0.70
2023-01-29T18:18:18.595Z,0.70
2023-01-29T18:23:22.012Z,0.71
2023-01-29T18:28:25.924Z,0.72
2023-01-29T18:33:28.558Z,0.75
2023-01-29T18:38:33.336Z,0.80
2023-01-29T18:43:37.037Z,0.78
2023-01-29T18:48:42.539Z,0.74
2023-01-29T18:53:49.756Z,0.73
2023-01-29T18:58:55.992Z,0.72
2023-01-29T19:04:01.835Z,0.68
2023-01-29T19:09:05.007Z,0.67
2023-01-29T19:14:07.626Z,0.67
2023-01-29T19:19:10.358Z,0.68
2023-01-29T19:24:14.197Z,0.71
2023-01-29T19:29:17.773Z,0.75
2023-01-29T19:34:22.242Z,0.75
2023-01-29T19:39:29.895Z,0.75
2023-01-29T19:44:33.153Z,0.78
2023-01-29T19:49:35.807Z,0.76
2023-01-29T19:54:39.398Z,0.75
2023-01-29T19:59:45.585Z,0.77
2023-01-29T20:04:48.455Z,0.77
2023-01-29T20:09:52.756Z,0.75
2023-01-29T20:14:57.642Z,0.69
2023-01-29T20:20:00.231Z,0.65
2023-01-29T20:25:02.991Z,0.65
2023-01-29T20:30:06.090Z,0.65
2023-01-29T20:35:10.131Z,0.67
2023-01-29T20:40:14.620Z,0.65
2023-01-29T20:45:20.239Z,0.65
2023-01-29T20:50:23.986Z,0.66
2023-01-29T20:55:26.931Z,0.67
2023-01-29T21:00:29.535Z,0.69
2023-01-29T21:05:32.284Z,0.70
2023-01-29T21:10:37.584Z,0.70
2023-01-29T21:15:42.938Z,0.72
2023-01-29T21:20:45.974Z,0.76
2023-01-29T21:25:48.775Z,0.78
2023-01-29T21:31:02.749Z,0.81
2023-01-29T21:36:06.660Z,0.85
2023-01-29T21:41:10.018Z,0.87
2023-01-29T21:46:13.078Z,0.90
2023-01-29T21:51:17.924Z,0.92
2023-01-29T21:56:21.551Z,0.93
2023-01-29T22:01:37.225Z,0.93
2023-01-29T22:06:41.324Z,0.95
2023-01-29T22:11:43.898Z,0.95
2023-01-29T22:16:46.682Z,0.95
2023-01-29T22:21:49.316Z,0.95
2023-01-29T22:26:52.492Z,0.95
2023-01-29T22:31:56.504Z,0.97
2023-01-29T22:36:59.160Z,0.95
2023-01-29T22:42:02.474Z,0.95
2023-01-29T22:47:05.180Z,0.96
2023-01-29T22:52:12.059Z,0.94
2023-01-29T22:57:15.679Z,0.92
2023-01-29T23:02:19.758Z,0.92
2023-01-29T23:07:25.786Z,0.94
2023-01-29T23:12:29.043Z,0.94
2023-01-29T23:17:32.081Z,0.94
2023-01-29T23:22:34.779Z,0.93
2023-01-29T23:27:39.317Z,0.93
2023-01-29T23:32:41.937Z,0.92
2023-01-29T23:37:44.546Z,0.91
2023-01-29T23:42:48.502Z,0.92
2023-01-29T23:47:51.100Z,0.94
2023-01-29T23:52:53.788Z,0.94
2023-01-29T23:57:57.507Z,0.95
